sensor_id;sensor_type;location;lat;lon;timestamp;P1;durP1;ratioP1;P2;durP2;ratioP2
39222;SDS011;24936;46.328;11.026;2023-07-29T00:00:51;39.83;;;35.90;;
39222;SDS011;24936;46.328;11.026;2023-07-29T00:05:42;27.20;;;20.50;;
39222;SDS011;24936;46.328;11.026;2023-07-29T00:10:35;19.52;;;17.83;;
39222;SDS011;24936;46.328;11.026;2023-07-29T00:13:02;15.70;;;14.38;;
39222;SDS011;24936;46.328;11.026;2023-07-29T00:15:28;24.13;;;12.95;;
39222;SDS011;24936;46.328;11.026;2023-07-29T00:20:19;12.73;;;9.60;;
39222;SDS011;24936;46.328;11.026;2023-07-29T00:22:44;14.00;;;8.05;;
39222;SDS011;24936;46.328;11.026;2023-07-29T00:27:35;10.32;;;6.55;;
39222;SDS011;24936;46.328;11.026;2023-07-29T00:32:27;8.57;;;6.68;;
39222;SDS011;24936;46.328;11.026;2023-07-29T00:34:54;12.48;;;7.15;;
39222;SDS011;24936;46.328;11.026;2023-07-29T00:39:45;9.32;;;8.35;;
39222;SDS011;24936;46.328;11.026;2023-07-29T00:44:36;11.88;;;9.18;;
39222;SDS011;24936;46.328;11.026;2023-07-29T00:47:02;14.82;;;9.27;;
39222;SDS011;24936;46.328;11.026;2023-07-29T00:49:29;9.65;;;8.48;;
39222;SDS011;24936;46.328;11.026;2023-07-29T00:54:21;9.25;;;5.50;;
39222;SDS011;24936;46.328;11.026;2023-07-29T00:59:12;20.25;;;5.15;;
39222;SDS011;24936;46.328;11.026;2023-07-29T01:04:03;18.38;;;5.18;;
39222;SDS011;24936;46.328;11.026;2023-07-29T01:14:49;58.05;;;30.85;;
39222;SDS011;24936;46.328;11.026;2023-07-29T01:17:26;61.55;;;30.30;;
39222;SDS011;24936;46.328;11.026;2023-07-29T01:22:34;65.17;;;40.77;;
39222;SDS011;24936;46.328;11.026;2023-07-29T01:25:00;72.13;;;42.08;;
39222;SDS011;24936;46.328;11.026;2023-07-29T01:29:52;81.88;;;54.63;;
39222;SDS011;24936;46.328;11.026;2023-07-29T01:32:24;84.40;;;54.30;;
39222;SDS011;24936;46.328;11.026;2023-07-29T01:35:13;73.82;;;54.03;;
39222;SDS011;24936;46.328;11.026;2023-07-29T01:37:57;87.82;;;61.08;;
39222;SDS011;24936;46.328;11.026;2023-07-29T01:40:28;85.82;;;59.03;;
39222;SDS011;24936;46.328;11.026;2023-07-29T01:45:22;16.90;;;5.93;;
39222;SDS011;24936;46.328;11.026;2023-07-29T01:47:51;15.90;;;6.47;;
39222;SDS011;24936;46.328;11.026;2023-07-29T01:52:42;11.73;;;5.88;;
39222;SDS011;24936;46.328;11.026;2023-07-29T01:57:33;11.57;;;5.57;;
39222;SDS011;24936;46.328;11.026;2023-07-29T02:02:24;10.07;;;5.85;;
39222;SDS011;24936;46.328;11.026;2023-07-29T02:04:49;14.70;;;6.07;;
39222;SDS011;24936;46.328;11.026;2023-07-29T02:07:17;11.07;;;5.22;;
39222;SDS011;24936;46.328;11.026;2023-07-29T02:09:43;15.52;;;6.68;;
39222;SDS011;24936;46.328;11.026;2023-07-29T02:14:34;12.68;;;6.07;;
39222;SDS011;24936;46.328;11.026;2023-07-29T02:19:24;19.55;;;6.25;;
39222;SDS011;24936;46.328;11.026;2023-07-29T02:24:15;16.02;;;6.72;;
39222;SDS011;24936;46.328;11.026;2023-07-29T02:26:42;16.25;;;6.28;;
39222;SDS011;24936;46.328;11.026;2023-07-29T02:29:07;13.52;;;5.65;;
39222;SDS011;24936;46.328;11.026;2023-07-29T02:31:33;11.70;;;4.75;;
39222;SDS011;24936;46.328;11.026;2023-07-29T02:33:59;3.65;;;2.80;;
39222;SDS011;24936;46.328;11.026;2023-07-29T02:36:25;4.05;;;2.58;;
39222;SDS011;24936;46.328;11.026;2023-07-29T02:38:50;5.40;;;2.47;;
39222;SDS011;24936;46.328;11.026;2023-07-29T02:43:42;3.25;;;2.45;;
39222;SDS011;24936;46.328;11.026;2023-07-29T02:46:08;3.97;;;2.13;;
39222;SDS011;24936;46.328;11.026;2023-07-29T02:48:34;3.38;;;2.30;;
39222;SDS011;24936;46.328;11.026;2023-07-29T02:50:59;3.67;;;2.45;;
39222;SDS011;24936;46.328;11.026;2023-07-29T02:55:50;2.92;;;2.40;;
39222;SDS011;24936;46.328;11.026;2023-07-29T02:58:15;2.78;;;2.00;;
39222;SDS011;24936;46.328;11.026;2023-07-29T03:00:42;3.15;;;2.20;;
39222;SDS011;24936;46.328;11.026;2023-07-29T03:03:08;2.70;;;2.50;;
39222;SDS011;24936;46.328;11.026;2023-07-29T03:08:00;4.00;;;2.35;;
39222;SDS011;24936;46.328;11.026;2023-07-29T03:10:25;4.80;;;2.38;;
39222;SDS011;24936;46.328;11.026;2023-07-29T03:15:18;2.65;;;2.25;;
39222;SDS011;24936;46.328;11.026;2023-07-29T03:17:44;2.65;;;2.45;;
39222;SDS011;24936;46.328;11.026;2023-07-29T03:20:09;4.05;;;2.38;;
39222;SDS011;24936;46.328;11.026;2023-07-29T03:22:35;2.40;;;2.15;;
39222;SDS011;24936;46.328;11.026;2023-07-29T03:27:25;5.05;;;2.47;;
39222;SDS011;24936;46.328;11.026;2023-07-29T03:32:16;2.67;;;2.03;;
39222;SDS011;24936;46.328;11.026;2023-07-29T03:37:07;4.50;;;2.35;;
39222;SDS011;24936;46.328;11.026;2023-07-29T03:41:59;2.95;;;2.20;;
39222;SDS011;24936;46.328;11.026;2023-07-29T03:44:24;5.40;;;2.55;;
39222;SDS011;24936;46.328;11.026;2023-07-29T03:46:50;3.90;;;2.67;;
39222;SDS011;24936;46.328;11.026;2023-07-29T03:49:16;4.78;;;2.55;;
39222;SDS011;24936;46.328;11.026;2023-07-29T03:51:41;4.72;;;2.67;;
39222;SDS011;24936;46.328;11.026;2023-07-29T03:54:07;3.63;;;2.17;;
39222;SDS011;24936;46.328;11.026;2023-07-29T03:59:04;3.17;;;2.70;;
39222;SDS011;24936;46.328;11.026;2023-07-29T04:01:30;2.75;;;2.45;;
39222;SDS011;24936;46.328;11.026;2023-07-29T04:03:56;6.35;;;2.58;;
39222;SDS011;24936;46.328;11.026;2023-07-29T04:08:47;3.22;;;2.10;;
39222;SDS011;24936;46.328;11.026;2023-07-29T04:11:13;3.88;;;2.30;;
39222;SDS011;24936;46.328;11.026;2023-07-29T04:16:04;3.53;;;2.33;;
39222;SDS011;24936;46.328;11.026;2023-07-29T04:20:56;4.10;;;2.70;;
39222;SDS011;24936;46.328;11.026;2023-07-29T04:25:47;5.15;;;3.20;;
39222;SDS011;24936;46.328;11.026;2023-07-29T04:30:37;5.53;;;2.92;;
39222;SDS011;24936;46.328;11.026;2023-07-29T04:35:28;5.90;;;3.45;;
39222;SDS011;24936;46.328;11.026;2023-07-29T04:40:19;4.30;;;2.95;;
39222;SDS011;24936;46.328;11.026;2023-07-29T04:45:10;4.82;;;2.90;;
39222;SDS011;24936;46.328;11.026;2023-07-29T04:50:01;56.15;;;16.77;;
39222;SDS011;24936;46.328;11.026;2023-07-29T04:54:51;68.40;;;25.30;;
39222;SDS011;24936;46.328;11.026;2023-07-29T04:59:42;75.25;;;27.02;;
39222;SDS011;24936;46.328;11.026;2023-07-29T05:04:33;99.03;;;37.08;;
39222;SDS011;24936;46.328;11.026;2023-07-29T05:09:24;97.55;;;41.58;;
39222;SDS011;24936;46.328;11.026;2023-07-29T05:14:15;98.97;;;53.78;;
39222;SDS011;24936;46.328;11.026;2023-07-29T05:16:42;110.32;;;45.55;;
39222;SDS011;24936;46.328;11.026;2023-07-29T05:21:33;124.28;;;62.80;;
39222;SDS011;24936;46.328;11.026;2023-07-29T05:26:24;189.23;;;104.72;;
39222;SDS011;24936;46.328;11.026;2023-07-29T05:31:15;187.70;;;88.20;;
39222;SDS011;24936;46.328;11.026;2023-07-29T05:36:05;245.30;;;117.03;;
39222;SDS011;24936;46.328;11.026;2023-07-29T05:40:56;289.05;;;148.68;;
39222;SDS011;24936;46.328;11.026;2023-07-29T05:45:49;353.63;;;187.88;;
39222;SDS011;24936;46.328;11.026;2023-07-29T05:50:39;1125.47;;;871.70;;
39222;SDS011;24936;46.328;11.026;2023-07-29T05:55:30;1437.43;;;985.92;;
39222;SDS011;24936;46.328;11.026;2023-07-29T05:57:56;1851.38;;;999.90;;
39222;SDS011;24936;46.328;11.026;2023-07-29T06:00:22;1999.90;;;999.90;;
39222;SDS011;24936;46.328;11.026;2023-07-29T06:05:13;1999.90;;;999.90;;
39222;SDS011;24936;46.328;11.026;2023-07-29T06:07:39;1999.90;;;999.90;;
39222;SDS011;24936;46.328;11.026;2023-07-29T06:10:09;1987.28;;;999.90;;
39222;SDS011;24936;46.328;11.026;2023-07-29T06:12:37;1999.90;;;999.90;;
39222;SDS011;24936;46.328;11.026;2023-07-29T06:17:28;1999.90;;;999.90;;
39222;SDS011;24936;46.328;11.026;2023-07-29T06:19:53;1999.90;;;999.90;;
39222;SDS011;24936;46.328;11.026;2023-07-29T06:22:19;1999.90;;;999.90;;
39222;SDS011;24936;46.328;11.026;2023-07-29T06:27:09;1999.90;;;999.90;;
39222;SDS011;24936;46.328;11.026;2023-07-29T06:29:38;1999.90;;;999.90;;
39222;SDS011;24936;46.328;11.026;2023-07-29T06:32:03;1999.90;;;999.90;;
39222;SDS011;24936;46.328;11.026;2023-07-29T06:36:54;1999.90;;;999.90;;
39222;SDS011;24936;46.328;11.026;2023-07-29T06:41:45;1999.90;;;999.90;;
39222;SDS011;24936;46.328;11.026;2023-07-29T06:46:36;1999.90;;;999.90;;
39222;SDS011;24936;46.328;11.026;2023-07-29T06:51:27;1999.90;;;999.90;;
39222;SDS011;24936;46.328;11.026;2023-07-29T06:53:57;1999.90;;;999.90;;
39222;SDS011;24936;46.328;11.026;2023-07-29T06:56:23;1999.90;;;999.90;;
39222;SDS011;24936;46.328;11.026;2023-07-29T07:01:14;1999.90;;;999.90;;
39222;SDS011;24936;46.328;11.026;2023-07-29T07:03:39;1999.90;;;999.90;;
39222;SDS011;24936;46.328;11.026;2023-07-29T07:06:05;1999.90;;;999.90;;
39222;SDS011;24936;46.328;11.026;2023-07-29T07:08:30;1999.90;;;999.90;;
39222;SDS011;24936;46.328;11.026;2023-07-29T07:10:56;1999.90;;;999.90;;
39222;SDS011;24936;46.328;11.026;2023-07-29T07:15:47;1999.90;;;999.90;;
39222;SDS011;24936;46.328;11.026;2023-07-29T07:18:12;1999.90;;;999.90;;
39222;SDS011;24936;46.328;11.026;2023-07-29T07:20:38;1999.90;;;999.90;;
39222;SDS011;24936;46.328;11.026;2023-07-29T07:23:03;1999.90;;;999.90;;
39222;SDS011;24936;46.328;11.026;2023-07-29T07:25:30;1999.90;;;999.90;;
39222;SDS011;24936;46.328;11.026;2023-07-29T07:27:56;1999.90;;;999.90;;
39222;SDS011;24936;46.328;11.026;2023-07-29T07:30:22;1999.90;;;999.90;;
39222;SDS011;24936;46.328;11.026;2023-07-29T07:32:47;1999.90;;;999.90;;
39222;SDS011;24936;46.328;11.026;2023-07-29T07:35:12;1999.90;;;999.90;;
39222;SDS011;24936;46.328;11.026;2023-07-29T07:37:38;1999.90;;;999.90;;
39222;SDS011;24936;46.328;11.026;2023-07-29T07:40:04;1999.90;;;999.90;;
39222;SDS011;24936;46.328;11.026;2023-07-29T07:42:29;1999.90;;;999.90;;
39222;SDS011;24936;46.328;11.026;2023-07-29T07:44:55;1999.90;;;999.90;;
39222;SDS011;24936;46.328;11.026;2023-07-29T07:47:20;1999.90;;;999.90;;
39222;SDS011;24936;46.328;11.026;2023-07-29T07:49:46;1999.90;;;999.90;;
39222;SDS011;24936;46.328;11.026;2023-07-29T07:52:11;1999.90;;;999.90;;
39222;SDS011;24936;46.328;11.026;2023-07-29T07:54:37;1999.90;;;999.90;;
39222;SDS011;24936;46.328;11.026;2023-07-29T07:57:02;1999.90;;;999.90;;
39222;SDS011;24936;46.328;11.026;2023-07-29T07:59:28;1999.90;;;999.90;;
39222;SDS011;24936;46.328;11.026;2023-07-29T08:01:53;1999.90;;;999.90;;
39222;SDS011;24936;46.328;11.026;2023-07-29T08:04:18;1999.90;;;999.90;;
39222;SDS011;24936;46.328;11.026;2023-07-29T08:06:44;1999.90;;;999.90;;
39222;SDS011;24936;46.328;11.026;2023-07-29T08:09:09;1999.90;;;998.38;;
39222;SDS011;24936;46.328;11.026;2023-07-29T08:11:35;1999.90;;;999.90;;
39222;SDS011;24936;46.328;11.026;2023-07-29T08:14:00;1999.90;;;999.90;;
39222;SDS011;24936;46.328;11.026;2023-07-29T08:16:26;1999.90;;;999.90;;
39222;SDS011;24936;46.328;11.026;2023-07-29T08:18:51;1999.90;;;999.90;;
39222;SDS011;24936;46.328;11.026;2023-07-29T08:21:17;1999.90;;;999.90;;
39222;SDS011;24936;46.328;11.026;2023-07-29T08:23:42;1999.90;;;999.90;;
39222;SDS011;24936;46.328;11.026;2023-07-29T08:26:08;1999.90;;;999.90;;
39222;SDS011;24936;46.328;11.026;2023-07-29T08:28:34;1999.90;;;999.90;;
39222;SDS011;24936;46.328;11.026;2023-07-29T08:31:00;1999.90;;;999.90;;
39222;SDS011;24936;46.328;11.026;2023-07-29T08:33:26;1999.90;;;999.90;;
39222;SDS011;24936;46.328;11.026;2023-07-29T08:35:52;1999.90;;;999.90;;
39222;SDS011;24936;46.328;11.026;2023-07-29T08:38:19;1999.90;;;999.90;;
39222;SDS011;24936;46.328;11.026;2023-07-29T08:43:19;1999.90;;;999.90;;
39222;SDS011;24936;46.328;11.026;2023-07-29T08:45:47;1999.90;;;999.90;;
39222;SDS011;24936;46.328;11.026;2023-07-29T08:48:13;1999.90;;;999.90;;
39222;SDS011;24936;46.328;11.026;2023-07-29T08:50:44;1999.90;;;999.90;;
39222;SDS011;24936;46.328;11.026;2023-07-29T08:53:10;1999.90;;;999.90;;
39222;SDS011;24936;46.328;11.026;2023-07-29T08:55:36;1999.90;;;999.90;;
39222;SDS011;24936;46.328;11.026;2023-07-29T08:58:02;1999.90;;;999.90;;
39222;SDS011;24936;46.328;11.026;2023-07-29T09:00:28;1999.90;;;999.90;;
39222;SDS011;24936;46.328;11.026;2023-07-29T09:02:54;1999.90;;;999.90;;
39222;SDS011;24936;46.328;11.026;2023-07-29T09:05:23;1999.90;;;999.90;;
39222;SDS011;24936;46.328;11.026;2023-07-29T09:07:49;1999.90;;;999.90;;
39222;SDS011;24936;46.328;11.026;2023-07-29T09:10:21;1999.90;;;999.90;;
39222;SDS011;24936;46.328;11.026;2023-07-29T09:12:48;1999.90;;;999.90;;
39222;SDS011;24936;46.328;11.026;2023-07-29T09:15:20;1999.90;;;999.90;;
39222;SDS011;24936;46.328;11.026;2023-07-29T09:17:51;1999.90;;;999.90;;
39222;SDS011;24936;46.328;11.026;2023-07-29T09:20:22;1999.90;;;999.90;;
39222;SDS011;24936;46.328;11.026;2023-07-29T09:22:49;1999.90;;;999.90;;
39222;SDS011;24936;46.328;11.026;2023-07-29T09:25:15;1999.90;;;999.90;;
39222;SDS011;24936;46.328;11.026;2023-07-29T09:27:42;1999.90;;;999.90;;
39222;SDS011;24936;46.328;11.026;2023-07-29T09:30:15;1999.90;;;999.90;;
39222;SDS011;24936;46.328;11.026;2023-07-29T09:32:41;1999.90;;;999.90;;
39222;SDS011;24936;46.328;11.026;2023-07-29T09:35:09;1999.90;;;999.90;;
39222;SDS011;24936;46.328;11.026;2023-07-29T09:37:36;1999.90;;;999.90;;
39222;SDS011;24936;46.328;11.026;2023-07-29T09:40:03;1999.90;;;999.90;;
39222;SDS011;24936;46.328;11.026;2023-07-29T09:42:29;1999.90;;;999.90;;
39222;SDS011;24936;46.328;11.026;2023-07-29T09:44:54;1999.90;;;999.90;;
39222;SDS011;24936;46.328;11.026;2023-07-29T09:47:28;1999.90;;;999.90;;
39222;SDS011;24936;46.328;11.026;2023-07-29T09:49:54;1999.90;;;999.90;;
39222;SDS011;24936;46.328;11.026;2023-07-29T09:52:22;1999.90;;;999.90;;
39222;SDS011;24936;46.328;11.026;2023-07-29T09:54:48;1999.90;;;999.90;;
39222;SDS011;24936;46.328;11.026;2023-07-29T09:57:14;1999.90;;;999.90;;
39222;SDS011;24936;46.328;11.026;2023-07-29T09:59:54;1999.90;;;999.90;;
39222;SDS011;24936;46.328;11.026;2023-07-29T10:02:21;1999.90;;;999.90;;
39222;SDS011;24936;46.328;11.026;2023-07-29T10:04:47;1999.90;;;999.90;;
39222;SDS011;24936;46.328;11.026;2023-07-29T10:07:13;1999.90;;;999.90;;
39222;SDS011;24936;46.328;11.026;2023-07-29T10:09:39;1999.90;;;999.90;;
39222;SDS011;24936;46.328;11.026;2023-07-29T10:12:12;1999.90;;;999.90;;
39222;SDS011;24936;46.328;11.026;2023-07-29T10:14:38;1999.90;;;999.90;;
39222;SDS011;24936;46.328;11.026;2023-07-29T10:17:17;1999.90;;;999.90;;
39222;SDS011;24936;46.328;11.026;2023-07-29T10:19:46;1999.90;;;999.90;;
39222;SDS011;24936;46.328;11.026;2023-07-29T10:22:12;1999.90;;;999.90;;
39222;SDS011;24936;46.328;11.026;2023-07-29T10:24:40;1999.90;;;999.90;;
39222;SDS011;24936;46.328;11.026;2023-07-29T10:27:09;1999.90;;;999.90;;
39222;SDS011;24936;46.328;11.026;2023-07-29T10:29:38;1999.90;;;999.90;;
39222;SDS011;24936;46.328;11.026;2023-07-29T10:32:09;1999.90;;;999.90;;
39222;SDS011;24936;46.328;11.026;2023-07-29T10:34:36;1999.90;;;999.90;;
39222;SDS011;24936;46.328;11.026;2023-07-29T10:37:03;1999.90;;;999.90;;
39222;SDS011;24936;46.328;11.026;2023-07-29T10:40:12;1999.90;;;999.90;;
39222;SDS011;24936;46.328;11.026;2023-07-29T10:42:21;1999.90;;;999.90;;
39222;SDS011;24936;46.328;11.026;2023-07-29T10:44:47;1999.90;;;999.90;;
39222;SDS011;24936;46.328;11.026;2023-07-29T10:49:46;1999.90;;;999.90;;
39222;SDS011;24936;46.328;11.026;2023-07-29T10:52:27;1999.90;;;999.90;;
39222;SDS011;24936;46.328;11.026;2023-07-29T10:55:04;1999.90;;;999.90;;
39222;SDS011;24936;46.328;11.026;2023-07-29T10:57:49;1999.90;;;999.90;;
39222;SDS011;24936;46.328;11.026;2023-07-29T11:00:15;1999.90;;;999.90;;
39222;SDS011;24936;46.328;11.026;2023-07-29T11:02:41;1999.90;;;999.90;;
39222;SDS011;24936;46.328;11.026;2023-07-29T11:05:16;1999.90;;;999.90;;
39222;SDS011;24936;46.328;11.026;2023-07-29T11:07:47;1999.90;;;999.90;;
39222;SDS011;24936;46.328;11.026;2023-07-29T11:10:13;1999.90;;;999.90;;
39222;SDS011;24936;46.328;11.026;2023-07-29T11:17:55;1999.90;;;999.90;;
39222;SDS011;24936;46.328;11.026;2023-07-29T11:20:25;1999.90;;;999.90;;
39222;SDS011;24936;46.328;11.026;2023-07-29T11:22:56;1999.90;;;999.90;;
39222;SDS011;24936;46.328;11.026;2023-07-29T11:25:24;1999.90;;;999.90;;
39222;SDS011;24936;46.328;11.026;2023-07-29T11:27:54;1999.90;;;999.90;;
39222;SDS011;24936;46.328;11.026;2023-07-29T11:30:21;1999.90;;;999.90;;
39222;SDS011;24936;46.328;11.026;2023-07-29T11:32:57;1999.90;;;999.90;;
39222;SDS011;24936;46.328;11.026;2023-07-29T11:35:23;1999.90;;;999.90;;
39222;SDS011;24936;46.328;11.026;2023-07-29T11:37:49;1999.90;;;999.90;;
39222;SDS011;24936;46.328;11.026;2023-07-29T11:40:17;1999.90;;;999.90;;
39222;SDS011;24936;46.328;11.026;2023-07-29T11:42:44;1999.90;;;999.90;;
39222;SDS011;24936;46.328;11.026;2023-07-29T11:45:12;1999.90;;;999.90;;
39222;SDS011;24936;46.328;11.026;2023-07-29T11:47:38;1999.90;;;999.90;;
39222;SDS011;24936;46.328;11.026;2023-07-29T11:50:07;1999.90;;;999.90;;
39222;SDS011;24936;46.328;11.026;2023-07-29T11:52:34;1999.90;;;999.90;;
39222;SDS011;24936;46.328;11.026;2023-07-29T11:55:04;1999.90;;;999.90;;
39222;SDS011;24936;46.328;11.026;2023-07-29T11:57:31;1999.90;;;999.90;;
39222;SDS011;24936;46.328;11.026;2023-07-29T11:59:58;1999.90;;;999.90;;
39222;SDS011;24936;46.328;11.026;2023-07-29T12:02:24;1999.90;;;999.90;;
39222;SDS011;24936;46.328;11.026;2023-07-29T12:04:51;1999.90;;;999.90;;
39222;SDS011;24936;46.328;11.026;2023-07-29T12:07:25;1999.90;;;999.90;;
39222;SDS011;24936;46.328;11.026;2023-07-29T12:09:51;1999.90;;;999.90;;
39222;SDS011;24936;46.328;11.026;2023-07-29T12:12:17;1999.90;;;999.90;;
39222;SDS011;24936;46.328;11.026;2023-07-29T12:14:43;1999.90;;;999.90;;
39222;SDS011;24936;46.328;11.026;2023-07-29T12:17:11;1999.90;;;999.90;;
39222;SDS011;24936;46.328;11.026;2023-07-29T12:19:37;1999.90;;;999.90;;
39222;SDS011;24936;46.328;11.026;2023-07-29T12:22:04;1999.90;;;999.90;;
39222;SDS011;24936;46.328;11.026;2023-07-29T12:24:31;1999.90;;;999.90;;
39222;SDS011;24936;46.328;11.026;2023-07-29T12:26:58;1999.90;;;999.90;;
39222;SDS011;24936;46.328;11.026;2023-07-29T12:29:24;1999.90;;;999.90;;
39222;SDS011;24936;46.328;11.026;2023-07-29T12:31:57;1999.90;;;999.90;;
39222;SDS011;24936;46.328;11.026;2023-07-29T12:34:27;1999.90;;;999.90;;
39222;SDS011;24936;46.328;11.026;2023-07-29T12:36:54;1999.90;;;999.90;;
39222;SDS011;24936;46.328;11.026;2023-07-29T12:39:21;1999.90;;;999.90;;
39222;SDS011;24936;46.328;11.026;2023-07-29T12:41:51;1999.90;;;999.90;;
39222;SDS011;24936;46.328;11.026;2023-07-29T12:44:18;1999.90;;;999.90;;
39222;SDS011;24936;46.328;11.026;2023-07-29T12:46:44;1999.90;;;999.90;;
39222;SDS011;24936;46.328;11.026;2023-07-29T12:49:10;1999.90;;;999.90;;
39222;SDS011;24936;46.328;11.026;2023-07-29T12:51:35;1999.90;;;999.90;;
39222;SDS011;24936;46.328;11.026;2023-07-29T12:54:02;1999.90;;;999.90;;
39222;SDS011;24936;46.328;11.026;2023-07-29T12:56:29;1999.90;;;999.90;;
39222;SDS011;24936;46.328;11.026;2023-07-29T12:58:56;1999.90;;;999.90;;
39222;SDS011;24936;46.328;11.026;2023-07-29T13:01:21;1999.90;;;999.90;;
39222;SDS011;24936;46.328;11.026;2023-07-29T13:03:47;1999.90;;;999.90;;
39222;SDS011;24936;46.328;11.026;2023-07-29T13:06:13;1999.90;;;999.90;;
39222;SDS011;24936;46.328;11.026;2023-07-29T13:08:39;1999.90;;;999.90;;
39222;SDS011;24936;46.328;11.026;2023-07-29T13:11:04;1999.90;;;999.90;;
39222;SDS011;24936;46.328;11.026;2023-07-29T13:13:30;1999.90;;;999.90;;
39222;SDS011;24936;46.328;11.026;2023-07-29T13:15:56;1999.90;;;999.90;;
39222;SDS011;24936;46.328;11.026;2023-07-29T13:18:22;1999.90;;;999.90;;
39222;SDS011;24936;46.328;11.026;2023-07-29T13:20:48;1999.90;;;999.90;;
39222;SDS011;24936;46.328;11.026;2023-07-29T13:23:13;1999.90;;;999.90;;
39222;SDS011;24936;46.328;11.026;2023-07-29T13:25:39;1999.90;;;999.90;;
39222;SDS011;24936;46.328;11.026;2023-07-29T13:28:04;1999.90;;;999.90;;
39222;SDS011;24936;46.328;11.026;2023-07-29T13:30:30;1999.90;;;999.90;;
39222;SDS011;24936;46.328;11.026;2023-07-29T13:32:56;1999.90;;;999.90;;
39222;SDS011;24936;46.328;11.026;2023-07-29T13:35:21;1999.90;;;999.90;;
39222;SDS011;24936;46.328;11.026;2023-07-29T13:37:47;1999.90;;;999.90;;
39222;SDS011;24936;46.328;11.026;2023-07-29T13:40:14;1999.90;;;999.90;;
39222;SDS011;24936;46.328;11.026;2023-07-29T13:42:39;1999.90;;;999.90;;
39222;SDS011;24936;46.328;11.026;2023-07-29T13:45:07;1999.90;;;999.90;;
39222;SDS011;24936;46.328;11.026;2023-07-29T13:47:33;1999.90;;;999.90;;
39222;SDS011;24936;46.328;11.026;2023-07-29T13:49:59;1999.90;;;999.90;;
39222;SDS011;24936;46.328;11.026;2023-07-29T13:52:29;1999.90;;;999.90;;
39222;SDS011;24936;46.328;11.026;2023-07-29T13:54:54;1999.90;;;999.90;;
39222;SDS011;24936;46.328;11.026;2023-07-29T13:57:19;1999.90;;;999.90;;
39222;SDS011;24936;46.328;11.026;2023-07-29T13:59:45;1999.90;;;999.90;;
39222;SDS011;24936;46.328;11.026;2023-07-29T14:02:10;1999.90;;;999.90;;
39222;SDS011;24936;46.328;11.026;2023-07-29T14:04:36;1999.90;;;999.90;;
39222;SDS011;24936;46.328;11.026;2023-07-29T14:07:02;1999.90;;;999.90;;
39222;SDS011;24936;46.328;11.026;2023-07-29T14:09:28;1999.90;;;999.90;;
39222;SDS011;24936;46.328;11.026;2023-07-29T14:11:54;1999.90;;;999.90;;
39222;SDS011;24936;46.328;11.026;2023-07-29T14:14:19;1999.90;;;999.90;;
39222;SDS011;24936;46.328;11.026;2023-07-29T14:16:45;1999.90;;;999.90;;
39222;SDS011;24936;46.328;11.026;2023-07-29T14:19:11;1999.90;;;999.90;;
39222;SDS011;24936;46.328;11.026;2023-07-29T14:21:37;1999.90;;;999.90;;
39222;SDS011;24936;46.328;11.026;2023-07-29T14:24:02;1999.90;;;999.90;;
39222;SDS011;24936;46.328;11.026;2023-07-29T14:26:28;1999.90;;;999.90;;
39222;SDS011;24936;46.328;11.026;2023-07-29T14:28:53;1999.90;;;999.90;;
39222;SDS011;24936;46.328;11.026;2023-07-29T14:31:19;1999.90;;;999.90;;
39222;SDS011;24936;46.328;11.026;2023-07-29T14:33:44;1999.90;;;999.90;;
39222;SDS011;24936;46.328;11.026;2023-07-29T14:36:10;1999.90;;;999.90;;
39222;SDS011;24936;46.328;11.026;2023-07-29T14:38:35;1999.90;;;999.90;;
39222;SDS011;24936;46.328;11.026;2023-07-29T14:41:01;1999.90;;;999.90;;
39222;SDS011;24936;46.328;11.026;2023-07-29T14:43:28;1999.90;;;999.90;;
39222;SDS011;24936;46.328;11.026;2023-07-29T14:45:54;1999.90;;;999.90;;
39222;SDS011;24936;46.328;11.026;2023-07-29T14:48:20;1999.90;;;999.90;;
39222;SDS011;24936;46.328;11.026;2023-07-29T14:50:45;1999.90;;;999.90;;
39222;SDS011;24936;46.328;11.026;2023-07-29T14:53:11;1999.90;;;999.90;;
39222;SDS011;24936;46.328;11.026;2023-07-29T14:55:37;1999.90;;;999.90;;
39222;SDS011;24936;46.328;11.026;2023-07-29T14:58:02;1999.90;;;999.90;;
39222;SDS011;24936;46.328;11.026;2023-07-29T15:00:28;1999.90;;;999.90;;
39222;SDS011;24936;46.328;11.026;2023-07-29T15:02:53;1999.90;;;999.90;;
39222;SDS011;24936;46.328;11.026;2023-07-29T15:05:19;1999.90;;;999.90;;
39222;SDS011;24936;46.328;11.026;2023-07-29T15:07:44;1999.90;;;999.90;;
39222;SDS011;24936;46.328;11.026;2023-07-29T15:10:09;1999.90;;;999.90;;
39222;SDS011;24936;46.328;11.026;2023-07-29T15:12:35;1999.90;;;999.90;;
39222;SDS011;24936;46.328;11.026;2023-07-29T15:15:01;1999.90;;;999.90;;
39222;SDS011;24936;46.328;11.026;2023-07-29T15:17:26;1999.90;;;999.90;;
39222;SDS011;24936;46.328;11.026;2023-07-29T15:19:52;1999.90;;;999.90;;
39222;SDS011;24936;46.328;11.026;2023-07-29T15:22:17;1999.90;;;999.90;;
39222;SDS011;24936;46.328;11.026;2023-07-29T15:24:43;1999.90;;;999.90;;
39222;SDS011;24936;46.328;11.026;2023-07-29T15:27:08;1999.90;;;999.90;;
39222;SDS011;24936;46.328;11.026;2023-07-29T15:29:35;1999.90;;;868.35;;
39222;SDS011;24936;46.328;11.026;2023-07-29T15:32:00;1999.90;;;999.90;;
39222;SDS011;24936;46.328;11.026;2023-07-29T15:34:26;1999.90;;;999.90;;
39222;SDS011;24936;46.328;11.026;2023-07-29T15:36:51;1999.90;;;999.90;;
39222;SDS011;24936;46.328;11.026;2023-07-29T15:39:16;1999.90;;;999.90;;
39222;SDS011;24936;46.328;11.026;2023-07-29T15:41:42;1999.90;;;999.90;;
39222;SDS011;24936;46.328;11.026;2023-07-29T15:44:07;1999.90;;;999.90;;
39222;SDS011;24936;46.328;11.026;2023-07-29T15:46:33;1999.90;;;999.90;;
39222;SDS011;24936;46.328;11.026;2023-07-29T15:48:58;1999.90;;;999.90;;
39222;SDS011;24936;46.328;11.026;2023-07-29T15:51:25;1999.90;;;999.90;;
39222;SDS011;24936;46.328;11.026;2023-07-29T15:53:51;1999.90;;;543.80;;
39222;SDS011;24936;46.328;11.026;2023-07-29T15:56:16;1999.90;;;571.35;;
39222;SDS011;24936;46.328;11.026;2023-07-29T15:58:42;1999.90;;;994.50;;
39222;SDS011;24936;46.328;11.026;2023-07-29T16:01:07;1999.90;;;889.50;;
39222;SDS011;24936;46.328;11.026;2023-07-29T16:03:33;1999.90;;;999.90;;
39222;SDS011;24936;46.328;11.026;2023-07-29T16:05:58;1999.90;;;999.90;;
39222;SDS011;24936;46.328;11.026;2023-07-29T16:08:24;1999.90;;;999.90;;
39222;SDS011;24936;46.328;11.026;2023-07-29T16:10:50;1999.90;;;612.65;;
39222;SDS011;24936;46.328;11.026;2023-07-29T16:13:15;1999.90;;;999.90;;
39222;SDS011;24936;46.328;11.026;2023-07-29T16:15:43;1999.90;;;953.35;;
39222;SDS011;24936;46.328;11.026;2023-07-29T16:20:34;609.45;;;542.90;;
39222;SDS011;24936;46.328;11.026;2023-07-29T16:25:24;23.27;;;10.55;;
39222;SDS011;24936;46.328;11.026;2023-07-29T16:30:15;79.45;;;23.95;;
39222;SDS011;24936;46.328;11.026;2023-07-29T16:32:41;164.45;;;74.20;;